sensor_id;sensor_type;location;lat;lon;timestamp;temperature;humidity
7646;DHT22;3864;48.180;14.178;2022-07-06T14:25:52;28.90;82.30
7646;DHT22;3864;48.180;14.178;2022-07-06T14:28:18;28.80;87.10
7646;DHT22;3864;48.180;14.178;2022-07-06T14:30:46;29.40;85.10
7646;DHT22;3864;48.180;14.178;2022-07-06T14:33:15;29.90;82.00
7646;DHT22;3864;48.180;14.178;2022-07-06T14:35:46;30.00;83.60
7646;DHT22;3864;48.180;14.178;2022-07-06T14:38:15;29.60;83.20
7646;DHT22;3864;48.180;14.178;2022-07-06T14:40:44;29.30;81.90
7646;DHT22;3864;48.180;14.178;2022-07-06T14:43:15;28.70;81.70
7646;DHT22;3864;48.180;14.178;2022-07-06T14:45:43;28.20;82.90
7646;DHT22;3864;48.180;14.178;2022-07-06T14:48:12;27.80;82.60
7646;DHT22;3864;48.180;14.178;2022-07-06T14:50:39;27.90;85.50
7646;DHT22;3864;48.180;14.178;2022-07-06T14:53:07;28.40;81.10
7646;DHT22;3864;48.180;14.178;2022-07-06T14:55:34;29.10;81.60
7646;DHT22;3864;48.180;14.178;2022-07-06T14:58:02;29.50;81.80
7646;DHT22;3864;48.180;14.178;2022-07-06T15:00:31;30.00;81.80
7646;DHT22;3864;48.180;14.178;2022-07-06T15:03:00;30.00;76.90
7646;DHT22;3864;48.180;14.178;2022-07-06T15:05:28;29.70;77.50
7646;DHT22;3864;48.180;14.178;2022-07-06T15:07:55;29.40;78.10
7646;DHT22;3864;48.180;14.178;2022-07-06T15:10:23;29.60;79.60
7646;DHT22;3864;48.180;14.178;2022-07-06T15:12:51;29.60;80.80
7646;DHT22;3864;48.180;14.178;2022-07-06T15:15:18;29.70;81.60
7646;DHT22;3864;48.180;14.178;2022-07-06T15:17:48;29.60;81.50
7646;DHT22;3864;48.180;14.178;2022-07-06T15:20:15;29.70;80.50
7646;DHT22;3864;48.180;14.178;2022-07-06T15:22:43;29.80;79.80
7646;DHT22;3864;48.180;14.178;2022-07-06T15:25:11;29.70;81.00
7646;DHT22;3864;48.180;14.178;2022-07-06T15:27:38;29.20;80.40
7646;DHT22;3864;48.180;14.178;2022-07-06T15:30:07;29.20;80.00
7646;DHT22;3864;48.180;14.178;2022-07-06T15:32:35;29.20;81.20
7646;DHT22;3864;48.180;14.178;2022-07-06T15:35:07;29.50;80.60
7646;DHT22;3864;48.180;14.178;2022-07-06T15:37:35;29.10;80.90
7646;DHT22;3864;48.180;14.178;2022-07-06T15:40:04;29.00;82.70
7646;DHT22;3864;48.180;14.178;2022-07-06T15:42:34;29.20;82.50
7646;DHT22;3864;48.180;14.178;2022-07-06T15:45:03;29.30;80.60
7646;DHT22;3864;48.180;14.178;2022-07-06T15:47:31;29.30;84.80
7646;DHT22;3864;48.180;14.178;2022-07-06T15:49:59;29.30;81.20
7646;DHT22;3864;48.180;14.178;2022-07-06T15:52:28;29.20;82.90
7646;DHT22;3864;48.180;14.178;2022-07-06T15:54:56;29.20;81.40
7646;DHT22;3864;48.180;14.178;2022-07-06T15:57:23;29.20;81.80
7646;DHT22;3864;48.180;14.178;2022-07-06T15:59:51;29.30;81.40
7646;DHT22;3864;48.180;14.178;2022-07-06T16:02:19;29.30;82.10
7646;DHT22;3864;48.180;14.178;2022-07-06T16:04:46;29.20;80.30
7646;DHT22;3864;48.180;14.178;2022-07-06T16:07:14;29.10;79.40
7646;DHT22;3864;48.180;14.178;2022-07-06T16:09:44;29.00;79.90
7646;DHT22;3864;48.180;14.178;2022-07-06T16:12:12;28.90;82.40
7646;DHT22;3864;48.180;14.178;2022-07-06T16:14:39;28.90;83.80
7646;DHT22;3864;48.180;14.178;2022-07-06T16:17:07;28.90;81.80
7646;DHT22;3864;48.180;14.178;2022-07-06T16:19:34;29.00;85.60
7646;DHT22;3864;48.180;14.178;2022-07-06T16:22:02;29.10;82.50
7646;DHT22;3864;48.180;14.178;2022-07-06T16:24:29;29.10;86.50
7646;DHT22;3864;48.180;14.178;2022-07-06T16:26:58;29.00;82.90
7646;DHT22;3864;48.180;14.178;2022-07-06T16:29:26;29.10;82.00
7646;DHT22;3864;48.180;14.178;2022-07-06T16:31:54;29.30;83.50
7646;DHT22;3864;48.180;14.178;2022-07-06T16:34:22;29.10;81.50
7646;DHT22;3864;48.180;14.178;2022-07-06T16:36:50;29.20;82.30
7646;DHT22;3864;48.180;14.178;2022-07-06T16:39:18;29.20;81.30
7646;DHT22;3864;48.180;14.178;2022-07-06T16:41:46;29.10;81.10
7646;DHT22;3864;48.180;14.178;2022-07-06T16:44:16;28.90;81.30
7646;DHT22;3864;48.180;14.178;2022-07-06T16:46:44;28.70;83.10
7646;DHT22;3864;48.180;14.178;2022-07-06T16:49:11;28.60;82.70
7646;DHT22;3864;48.180;14.178;2022-07-06T16:51:39;28.40;83.30
7646;DHT22;3864;48.180;14.178;2022-07-06T16:54:06;28.50;83.40
7646;DHT22;3864;48.180;14.178;2022-07-06T16:56:34;28.50;83.50
7646;DHT22;3864;48.180;14.178;2022-07-06T16:59:02;28.20;83.60
7646;DHT22;3864;48.180;14.178;2022-07-06T17:01:31;28.20;84.10
7646;DHT22;3864;48.180;14.178;2022-07-06T17:03:58;28.10;83.40
7646;DHT22;3864;48.180;14.178;2022-07-06T17:06:27;27.90;85.10
7646;DHT22;3864;48.180;14.178;2022-07-06T17:08:55;27.60;83.60
7646;DHT22;3864;48.180;14.178;2022-07-06T17:11:22;27.60;81.70
7646;DHT22;3864;48.180;14.178;2022-07-06T17:13:50;27.70;81.90
7646;DHT22;3864;48.180;14.178;2022-07-06T17:16:17;27.50;82.50
7646;DHT22;3864;48.180;14.178;2022-07-06T17:18:46;27.60;82.90
7646;DHT22;3864;48.180;14.178;2022-07-06T17:21:14;27.70;82.70
7646;DHT22;3864;48.180;14.178;2022-07-06T17:23:42;27.60;84.90
7646;DHT22;3864;48.180;14.178;2022-07-06T17:26:11;27.50;83.60
7646;DHT22;3864;48.180;14.178;2022-07-06T17:28:39;27.50;84.30
7646;DHT22;3864;48.180;14.178;2022-07-06T17:31:06;27.50;82.80
7646;DHT22;3864;48.180;14.178;2022-07-06T17:33:34;27.50;85.60
7646;DHT22;3864;48.180;14.178;2022-07-06T17:36:01;27.50;85.60
7646;DHT22;3864;48.180;14.178;2022-07-06T17:38:29;27.40;85.80
7646;DHT22;3864;48.180;14.178;2022-07-06T17:40:57;27.40;85.40
7646;DHT22;3864;48.180;14.178;2022-07-06T17:43:26;27.30;89.10
7646;DHT22;3864;48.180;14.178;2022-07-06T17:45:53;27.30;88.90
7646;DHT22;3864;48.180;14.178;2022-07-06T17:48:21;26.90;88.80
7646;DHT22;3864;48.180;14.178;2022-07-06T17:50:49;26.90;90.10
7646;DHT22;3864;48.180;14.178;2022-07-06T17:53:17;26.80;90.30
7646;DHT22;3864;48.180;14.178;2022-07-06T17:55:44;26.40;88.30
7646;DHT22;3864;48.180;14.178;2022-07-06T17:58:13;26.30;90.10
7646;DHT22;3864;48.180;14.178;2022-07-06T18:00:42;26.20;91.40
7646;DHT22;3864;48.180;14.178;2022-07-06T18:03:10;26.20;91.60
7646;DHT22;3864;48.180;14.178;2022-07-06T18:05:37;26.10;91.80
7646;DHT22;3864;48.180;14.178;2022-07-06T18:08:05;26.00;92.30
7646;DHT22;3864;48.180;14.178;2022-07-06T18:10:33;25.90;92.00
7646;DHT22;3864;48.180;14.178;2022-07-06T18:13:00;25.90;92.20
7646;DHT22;3864;48.180;14.178;2022-07-06T18:15:29;25.70;92.40
7646;DHT22;3864;48.180;14.178;2022-07-06T18:18:00;25.60;92.80
7646;DHT22;3864;48.180;14.178;2022-07-06T18:20:27;25.50;93.10
7646;DHT22;3864;48.180;14.178;2022-07-06T18:22:55;25.30;93.10
7646;DHT22;3864;48.180;14.178;2022-07-06T18:25:22;25.10;94.10
7646;DHT22;3864;48.180;14.178;2022-07-06T18:27:51;24.80;94.80
7646;DHT22;3864;48.180;14.178;2022-07-06T18:30:18;24.30;95.70
7646;DHT22;3864;48.180;14.178;2022-07-06T18:32:48;23.90;96.00
7646;DHT22;3864;48.180;14.178;2022-07-06T18:35:20;23.50;96.00
7646;DHT22;3864;48.180;14.178;2022-07-06T18:37:47;23.30;97.00
7646;DHT22;3864;48.180;14.178;2022-07-06T18:40:15;22.90;97.10
7646;DHT22;3864;48.180;14.178;2022-07-06T18:42:43;22.70;96.60
7646;DHT22;3864;48.180;14.178;2022-07-06T18:45:11;22.50;98.10
7646;DHT22;3864;48.180;14.178;2022-07-06T18:47:38;22.20;98.90
7646;DHT22;3864;48.180;14.178;2022-07-06T18:50:06;21.90;99.20
7646;DHT22;3864;48.180;14.178;2022-07-06T18:52:35;21.50;99.90
7646;DHT22;3864;48.180;14.178;2022-07-06T18:55:05;21.20;99.90
7646;DHT22;3864;48.180;14.178;2022-07-06T18:57:38;20.90;99.90
7646;DHT22;3864;48.180;14.178;2022-07-06T19:00:06;20.50;99.90
7646;DHT22;3864;48.180;14.178;2022-07-06T19:02:35;20.20;99.90
7646;DHT22;3864;48.180;14.178;2022-07-06T19:05:04;20.00;99.90
7646;DHT22;3864;48.180;14.178;2022-07-06T19:07:31;19.70;99.90
7646;DHT22;3864;48.180;14.178;2022-07-06T19:10:01;19.50;99.90
7646;DHT22;3864;48.180;14.178;2022-07-06T19:12:28;19.30;99.90
7646;DHT22;3864;48.180;14.178;2022-07-06T19:14:56;19.20;99.90
7646;DHT22;3864;48.180;14.178;2022-07-06T19:17:27;19.00;99.90
7646;DHT22;3864;48.180;14.178;2022-07-06T19:19:56;18.90;99.90
7646;DHT22;3864;48.180;14.178;2022-07-06T19:22:25;18.80;99.90
7646;DHT22;3864;48.180;14.178;2022-07-06T19:24:54;18.60;99.90
7646;DHT22;3864;48.180;14.178;2022-07-06T19:27:34;18.50;99.90
7646;DHT22;3864;48.180;14.178;2022-07-06T19:30:16;18.40;99.90
7646;DHT22;3864;48.180;14.178;2022-07-06T19:32:46;18.40;99.90
7646;DHT22;3864;48.180;14.178;2022-07-06T19:35:14;18.30;99.90
7646;DHT22;3864;48.180;14.178;2022-07-06T19:37:43;18.20;99.90
7646;DHT22;3864;48.180;14.178;2022-07-06T19:40:14;18.10;99.90
7646;DHT22;3864;48.180;14.178;2022-07-06T19:42:47;17.90;99.90
7646;DHT22;3864;48.180;14.178;2022-07-06T19:45:16;17.80;99.90
7646;DHT22;3864;48.180;14.178;2022-07-06T19:47:45;17.60;99.90
7646;DHT22;3864;48.180;14.178;2022-07-06T19:50:14;17.50;99.90
7646;DHT22;3864;48.180;14.178;2022-07-06T19:52:42;17.40;99.90
7646;DHT22;3864;48.180;14.178;2022-07-06T19:55:11;17.30;99.90
7646;DHT22;3864;48.180;14.178;2022-07-06T19:57:42;17.30;99.90
7646;DHT22;3864;48.180;14.178;2022-07-06T20:00:13;17.20;99.90
7646;DHT22;3864;48.180;14.178;2022-07-06T20:02:41;17.10;99.90
7646;DHT22;3864;48.180;14.178;2022-07-06T20:05:10;17.00;99.90
7646;DHT22;3864;48.180;14.178;2022-07-06T20:07:39;17.00;99.90
7646;DHT22;3864;48.180;14.178;2022-07-06T20:10:07;16.90;99.90
7646;DHT22;3864;48.180;14.178;2022-07-06T20:12:36;16.90;99.90
7646;DHT22;3864;48.180;14.178;2022-07-06T20:15:04;16.80;99.90
7646;DHT22;3864;48.180;14.178;2022-07-06T20:17:34;16.70;99.90
7646;DHT22;3864;48.180;14.178;2022-07-06T20:20:03;16.60;99.90
7646;DHT22;3864;48.180;14.178;2022-07-06T20:22:30;16.50;99.90
7646;DHT22;3864;48.180;14.178;2022-07-06T20:24:58;16.50;99.90
7646;DHT22;3864;48.180;14.178;2022-07-06T20:27:29;16.50;99.90
7646;DHT22;3864;48.180;14.178;2022-07-06T20:29:56;16.40;99.90
7646;DHT22;3864;48.180;14.178;2022-07-06T20:32:23;16.40;99.90
7646;DHT22;3864;48.180;14.178;2022-07-06T20:34:51;16.30;99.90
7646;DHT22;3864;48.180;14.178;2022-07-06T20:37:18;16.20;99.90
7646;DHT22;3864;48.180;14.178;2022-07-06T20:39:46;16.20;99.90
7646;DHT22;3864;48.180;14.178;2022-07-06T20:42:13;16.20;99.90
7646;DHT22;3864;48.180;14.178;2022-07-06T20:44:42;16.10;99.90
7646;DHT22;3864;48.180;14.178;2022-07-06T20:47:10;16.10;99.90
7646;DHT22;3864;48.180;14.178;2022-07-06T20:49:37;16.00;99.90
7646;DHT22;3864;48.180;14.178;2022-07-06T20:52:05;15.90;99.90
7646;DHT22;3864;48.180;14.178;2022-07-06T20:54:32;15.90;99.90
7646;DHT22;3864;48.180;14.178;2022-07-06T20:57:00;15.90;99.90
7646;DHT22;3864;48.180;14.178;2022-07-06T20:59:27;15.90;99.90
7646;DHT22;3864;48.180;14.178;2022-07-06T21:01:56;15.90;99.90
7646;DHT22;3864;48.180;14.178;2022-07-06T21:04:24;15.90;99.90
7646;DHT22;3864;48.180;14.178;2022-07-06T21:06:51;15.80;99.90
7646;DHT22;3864;48.180;14.178;2022-07-06T21:09:19;15.90;99.90
7646;DHT22;3864;48.180;14.178;2022-07-06T21:11:47;15.80;99.90
7646;DHT22;3864;48.180;14.178;2022-07-06T21:14:14;15.80;99.90
7646;DHT22;3864;48.180;14.178;2022-07-06T21:16:41;15.80;99.90
7646;DHT22;3864;48.180;14.178;2022-07-06T21:19:10;15.70;99.90
7646;DHT22;3864;48.180;14.178;2022-07-06T21:21:38;15.70;99.90
7646;DHT22;3864;48.180;14.178;2022-07-06T21:24:05;15.80;99.90
7646;DHT22;3864;48.180;14.178;2022-07-06T21:26:33;15.80;99.90
7646;DHT22;3864;48.180;14.178;2022-07-06T21:29:01;15.80;99.90
7646;DHT22;3864;48.180;14.178;2022-07-06T21:31:30;15.80;99.90
7646;DHT22;3864;48.180;14.178;2022-07-06T21:33:57;15.80;99.90
7646;DHT22;3864;48.180;14.178;2022-07-06T21:36:26;15.70;99.90
7646;DHT22;3864;48.180;14.178;2022-07-06T21:38:53;15.60;99.90
7646;DHT22;3864;48.180;14.178;2022-07-06T21:41:21;15.50;99.90
7646;DHT22;3864;48.180;14.178;2022-07-06T21:43:48;15.50;99.90
7646;DHT22;3864;48.180;14.178;2022-07-06T21:46:16;15.50;99.90
7646;DHT22;3864;48.180;14.178;2022-07-06T21:48:44;15.50;99.90
7646;DHT22;3864;48.180;14.178;2022-07-06T21:51:11;15.50;99.90
7646;DHT22;3864;48.180;14.178;2022-07-06T21:53:40;15.70;99.90
7646;DHT22;3864;48.180;14.178;2022-07-06T21:56:08;15.70;99.90
7646;DHT22;3864;48.180;14.178;2022-07-06T21:58:36;15.80;99.90
7646;DHT22;3864;48.180;14.178;2022-07-06T22:01:05;15.80;99.90
7646;DHT22;3864;48.180;14.178;2022-07-06T22:03:32;15.70;99.90
7646;DHT22;3864;48.180;14.178;2022-07-06T22:05:59;15.60;99.90
7646;DHT22;3864;48.180;14.178;2022-07-06T22:08:27;15.50;99.90
7646;DHT22;3864;48.180;14.178;2022-07-06T22:10:56;15.40;99.90
7646;DHT22;3864;48.180;14.178;2022-07-06T22:13:23;15.40;99.90
7646;DHT22;3864;48.180;14.178;2022-07-06T22:16:09;15.50;99.90
7646;DHT22;3864;48.180;14.178;2022-07-06T22:18:38;15.60;99.90
7646;DHT22;3864;48.180;14.178;2022-07-06T22:21:06;15.70;99.90
7646;DHT22;3864;48.180;14.178;2022-07-06T22:23:34;15.80;99.90
7646;DHT22;3864;48.180;14.178;2022-07-06T22:26:04;15.90;99.90
7646;DHT22;3864;48.180;14.178;2022-07-06T22:28:32;16.00;99.90
7646;DHT22;3864;48.180;14.178;2022-07-06T22:30:59;16.10;99.90
7646;DHT22;3864;48.180;14.178;2022-07-06T22:33:27;16.10;99.90
7646;DHT22;3864;48.180;14.178;2022-07-06T22:35:54;16.20;99.90
7646;DHT22;3864;48.180;14.178;2022-07-06T22:38:22;16.20;99.90
7646;DHT22;3864;48.180;14.178;2022-07-06T22:40:49;16.20;99.90
7646;DHT22;3864;48.180;14.178;2022-07-06T22:43:32;16.10;99.90
7646;DHT22;3864;48.180;14.178;2022-07-06T22:46:02;16.00;99.90
7646;DHT22;3864;48.180;14.178;2022-07-06T22:48:29;15.90;99.90
7646;DHT22;3864;48.180;14.178;2022-07-06T22:50:58;15.70;99.90
7646;DHT22;3864;48.180;14.178;2022-07-06T22:53:26;15.60;99.90
7646;DHT22;3864;48.180;14.178;2022-07-06T22:55:54;15.50;99.90
7646;DHT22;3864;48.180;14.178;2022-07-06T22:58:22;15.50;99.90
7646;DHT22;3864;48.180;14.178;2022-07-06T23:00:51;15.60;99.90
7646;DHT22;3864;48.180;14.178;2022-07-06T23:03:18;15.70;99.90
7646;DHT22;3864;48.180;14.178;2022-07-06T23:05:46;15.60;99.90
7646;DHT22;3864;48.180;14.178;2022-07-06T23:08:14;15.60;99.90
7646;DHT22;3864;48.180;14.178;2022-07-06T23:10:41;15.60;99.90
7646;DHT22;3864;48.180;14.178;2022-07-06T23:13:09;15.70;99.90
7646;DHT22;3864;48.180;14.178;2022-07-06T23:15:37;15.70;99.90
7646;DHT22;3864;48.180;14.178;2022-07-06T23:18:06;15.80;99.90
7646;DHT22;3864;48.180;14.178;2022-07-06T23:20:33;15.80;99.90
7646;DHT22;3864;48.180;14.178;2022-07-06T23:23:01;15.80;99.90
7646;DHT22;3864;48.180;14.178;2022-07-06T23:25:28;15.80;99.90
7646;DHT22;3864;48.180;14.178;2022-07-06T23:27:57;15.90;99.90
7646;DHT22;3864;48.180;14.178;2022-07-06T23:30:25;15.90;99.90
7646;DHT22;3864;48.180;14.178;2022-07-06T23:32:52;15.90;99.90
7646;DHT22;3864;48.180;14.178;2022-07-06T23:35:19;16.00;99.90
7646;DHT22;3864;48.180;14.178;2022-07-06T23:37:47;16.00;99.90
7646;DHT22;3864;48.180;14.178;2022-07-06T23:40:14;16.00;99.90
7646;DHT22;3864;48.180;14.178;2022-07-06T23:42:42;16.00;99.90
7646;DHT22;3864;48.180;14.178;2022-07-06T23:45:10;16.10;99.90
7646;DHT22;3864;48.180;14.178;2022-07-06T23:47:37;16.10;99.90
7646;DHT22;3864;48.180;14.178;2022-07-06T23:50:05;16.10;99.90
7646;DHT22;3864;48.180;14.178;2022-07-06T23:52:33;16.00;99.90
7646;DHT22;3864;48.180;14.178;2022-07-06T23:55:00;16.10;99.90
7646;DHT22;3864;48.180;14.178;2022-07-06T23:57:29;16.10;99.90
7646;DHT22;3864;48.180;14.178;2022-07-06T23:59:56;16.10;99.90
